Time;durP1;ratioP1;P1;durP2;ratioP2;P2;SDS_P1;SDS_P2;PMS_P1;PMS_P2;Temp;Humidity;BMP_temperature;BMP_pressure;BME280_temperature;BME280_humidity;BME280_pressure;Samples;Min_cycle;Max_cycle;Signal;HPM_P1;HPM_P2
2022/01/15 00:00:49;;;;;;;1.85;1.05;;;;;;;-1.86;82.67;96159.84;4810372;29;20057;-72
2022/01/15 00:03:15;;;;;;;1.48;0.88;;;;;;;-1.90;81.00;96171.47;4809985;29;20049;-71
2022/01/15 00:05:41;;;;;;;2.38;1.48;;;;;;;-1.98;79.68;96173.84;4809696;29;20073;-71
2022/01/15 00:08:07;;;;;;;1.23;0.60;;;;;;;-1.97;78.12;96177.28;4810306;29;20097;-72
2022/01/15 00:10:34;;;;;;;11.95;3.33;;;;;;;-1.85;79.67;96184.19;4810024;29;20049;-72
2022/01/15 00:13:01;;;;;;;2.15;0.82;;;;;;;-1.72;82.60;96182.28;4810633;29;20049;-74
2022/01/15 00:15:40;;;;;;;1.65;1.13;;;;;;;-1.87;80.39;96184.28;4811132;29;20065;-74
2022/01/15 00:18:10;;;;;;;2.85;1.40;;;;;;;-1.77;81.20;96188.78;4794717;29;20041;-74
2022/01/15 00:20:35;;;;;;;0.75;0.75;;;;;;;-1.80;81.78;96183.81;4810922;29;20075;-73
2022/01/15 00:23:00;;;;;;;2.40;1.05;;;;;;;-1.68;82.75;96185.47;4810761;29;20075;-73
2022/01/15 00:25:27;;;;;;;2.47;1.20;;;;;;;-1.75;83.43;96199.97;4810891;29;20155;-74
2022/01/15 00:27:52;;;;;;;3.88;1.35;;;;;;;-1.78;83.32;96192.34;4828180;29;20041;-73
2022/01/15 00:30:19;;;;;;;7.10;1.02;;;;;;;-1.84;82.50;96197.13;4811962;29;20515;-75
2022/01/15 00:32:44;;;;;;;1.38;0.85;;;;;;;-1.77;83.01;96199.25;4826464;29;20077;-72
2022/01/15 00:35:12;;;;;;;1.33;0.90;;;;;;;-1.84;82.17;96194.50;4809383;29;20076;-72
2022/01/15 00:37:37;;;;;;;2.35;1.10;;;;;;;-1.90;81.48;96201.97;4809521;29;20048;-75
2022/01/15 00:40:05;;;;;;;1.75;1.27;;;;;;;-1.92;81.63;96211.72;4809579;29;20064;-73
2022/01/15 00:42:31;;;;;;;0.95;0.55;;;;;;;-1.99;79.18;96218.31;4827209;29;20064;-76
2022/01/15 00:44:57;;;;;;;2.00;1.00;;;;;;;-2.00;78.56;96209.66;4827637;29;20128;-73
2022/01/15 00:47:22;;;;;;;2.35;0.60;;;;;;;-1.95;78.50;96201.50;4825496;29;20389;-74
2022/01/15 00:49:47;;;;;;;1.13;0.95;;;;;;;-1.87;79.22;96210.41;4810609;29;20372;-75
2022/01/15 00:52:12;;;;;;;3.05;1.52;;;;;;;-1.94;75.76;96211.81;4810963;29;20045;-74
2022/01/15 00:54:37;;;;;;;2.67;0.70;;;;;;;-1.84;78.02;96225.00;4810051;29;20049;-72
2022/01/15 00:57:02;;;;;;;4.75;0.70;;;;;;;-1.90;76.46;96221.06;4796012;29;20052;-74
2022/01/15 00:59:26;;;;;;;0.73;0.70;;;;;;;-1.81;78.03;96222.16;4810629;29;20428;-75
2022/01/15 01:01:51;;;;;;;2.63;0.95;;;;;;;-1.79;77.05;96224.63;4795189;29;20049;-74
2022/01/15 01:04:16;;;;;;;1.10;1.00;;;;;;;-1.76;77.44;96243.50;4795215;29;20408;-75
2022/01/15 01:06:41;;;;;;;6.15;1.65;;;;;;;-1.79;76.83;96232.47;4811155;29;20088;-68
2022/01/15 01:09:06;;;;;;;2.25;1.00;;;;;;;-1.77;76.43;96241.00;4809219;29;20081;-66
2022/01/15 01:11:54;;;;;;;0.68;0.50;;;;;;;-1.80;75.42;96230.78;4825601;29;20053;-72
2022/01/15 01:25:12;;;;;;;1.83;0.90;;;;;;;-1.83;78.10;96232.72;4809657;29;20053;-76
2022/01/15 01:27:45;;;;;;;0.73;0.47;;;;;;;-1.79;79.08;96242.91;4812947;29;20063;-72
2022/01/15 01:30:22;;;;;;;4.75;1.23;;;;;;;-1.92;77.55;96249.06;4808805;29;20042;-72
2022/01/15 01:32:53;;;;;;;1.98;1.15;;;;;;;-1.89;77.55;96234.94;4794054;29;20057;-74
2022/01/15 01:35:43;;;;;;;3.00;1.33;;;;;;;-1.92;77.94;96232.59;4809621;29;20049;-72
2022/01/15 01:38:13;;;;;;;1.58;1.05;;;;;;;-2.03;77.71;96235.19;4808116;29;20111;-72
2022/01/15 01:40:40;;;;;;;;;;;;;;;-1.89;77.33;96248.00;4793809;29;20128;-71
2022/01/15 01:45:47;;;;;;;3.17;1.25;;;;;;;-1.99;77.95;96247.88;4793252;29;20069;-70
2022/01/15 01:48:11;;;;;;;1.80;1.42;;;;;;;-2.06;77.47;96249.28;4809317;29;20804;-73
2022/01/15 01:50:36;;;;;;;1.90;1.17;;;;;;;-1.90;78.66;96260.22;4808162;29;20412;-71
2022/01/15 01:53:01;;;;;;;2.20;1.20;;;;;;;-2.00;77.06;96261.88;4807916;29;20046;-72
2022/01/15 01:55:28;;;;;;;5.43;1.65;;;;;;;-1.95;77.52;96258.91;4808524;29;20429;-74
2022/01/15 01:57:55;;;;;;;4.07;1.25;;;;;;;-1.88;78.37;96254.88;4793232;29;20053;-72
2022/01/15 02:00:22;;;;;;;2.45;1.17;;;;;;;-1.96;78.09;96260.69;4826319;29;20053;-77
2022/01/15 02:02:50;;;;;;;4.22;1.20;;;;;;;-1.96;78.38;96262.47;4810180;29;20053;-75
2022/01/15 02:05:16;;;;;;;2.95;1.10;;;;;;;-2.00;78.52;96264.47;4809908;29;20097;-73
2022/01/15 02:07:43;;;;;;;1.80;0.77;;;;;;;-2.00;78.55;96266.25;4825552;29;20528;-73
2022/01/15 02:10:09;;;;;;;2.92;1.23;;;;;;;-2.02;78.09;96268.97;4809374;29;20068;-70
2022/01/15 02:12:34;;;;;;;2.35;1.38;;;;;;;-1.89;78.92;96269.72;4808574;29;20090;-69
2022/01/15 02:15:05;;;;;;;2.75;0.88;;;;;;;-1.79;79.49;96272.47;4824577;29;20045;-70
2022/01/15 02:17:30;;;;;;;1.10;0.63;;;;;;;-1.77;79.92;96264.50;4824740;29;20509;-65
2022/01/15 02:20:11;;;;;;;3.45;0.85;;;;;;;-1.85;78.96;96268.53;4807877;29;20516;-66
2022/01/15 02:25:19;;;;;;;2.28;1.15;;;;;;;-1.81;79.71;96266.53;4807750;29;20568;-73
2022/01/15 02:27:44;;;;;;;2.47;1.42;;;;;;;-1.77;80.16;96267.13;4827338;29;20520;-74
2022/01/15 02:30:09;;;;;;;2.60;1.38;;;;;;;-1.78;79.44;96273.28;4808475;29;20560;-70
2022/01/15 02:32:35;;;;;;;5.60;1.13;;;;;;;-1.84;79.32;96272.81;4793290;29;20415;-70
2022/01/15 02:35:01;;;;;;;1.48;1.15;;;;;;;-1.92;78.97;96267.31;4772053;29;20041;-70
2022/01/15 02:37:26;;;;;;;0.73;0.73;;;;;;;-1.93;79.35;96270.91;4772020;29;20054;-72
2022/01/15 02:39:50;;;;;;;1.67;1.00;;;;;;;-1.96;78.83;96267.69;4789126;29;20058;-70
2022/01/15 02:42:15;;;;;;;2.90;1.20;;;;;;;-1.94;79.55;96271.84;4789566;29;20080;-70
2022/01/15 02:44:43;;;;;;;3.22;1.02;;;;;;;-1.86;80.02;96274.72;4789225;29;20127;-69
2022/01/15 02:49:32;;;;;;;5.10;0.95;;;;;;;-1.73;81.38;96268.56;4787580;29;20517;-66
2022/01/15 02:51:57;;;;;;;1.50;1.20;;;;;;;-1.85;80.64;96281.59;4787620;29;20072;-73
2022/01/15 02:54:22;;;;;;;2.08;1.20;;;;;;;-1.87;79.87;96278.28;4787030;29;20038;-74
2022/01/15 02:56:47;;;;;;;1.42;1.15;;;;;;;-1.96;79.31;96271.13;4789061;29;20455;-70
2022/01/15 02:59:22;;;;;;;2.35;0.95;;;;;;;-1.95;79.48;96283.25;4786182;29;20631;-73
2022/01/15 03:01:48;;;;;;;;;;;;;;;-1.85;79.45;96289.44;4770445;29;20113;-73
2022/01/15 03:04:13;;;;;;;1.02;0.82;;;;;;;-1.92;79.09;96288.22;4769416;29;20316;-74
2022/01/15 03:06:37;;;;;;;1.25;0.82;;;;;;;-1.92;79.24;96279.56;4773840;29;20395;-74
2022/01/15 03:09:03;;;;;;;1.85;1.48;;;;;;;-1.89;79.52;96290.59;4789285;29;20092;-73
2022/01/15 03:11:28;;;;;;;7.80;2.28;;;;;;;-1.86;79.98;96285.16;4775130;29;20137;-73
2022/01/15 03:13:53;;;;;;;1.17;1.08;;;;;;;-1.81;80.66;96291.81;4757499;29;20067;-73
2022/01/15 03:16:20;;;;;;;3.15;1.80;;;;;;;-1.84;79.79;96295.50;4773086;29;20058;-76
2022/01/15 03:18:45;;;;;;;2.05;1.48;;;;;;;-1.80;80.37;96291.69;4772128;29;20070;-67
2022/01/15 03:21:10;;;;;;;5.00;1.70;;;;;;;-1.90;79.40;96288.94;4772463;29;20054;-69
2022/01/15 03:23:35;;;;;;;3.28;2.05;;;;;;;-1.89;79.60;96298.44;4773792;29;20056;-68
2022/01/15 03:26:00;;;;;;;2.72;1.63;;;;;;;-1.99;79.93;96294.84;4775065;29;20055;-68
2022/01/15 03:28:25;;;;;;;2.78;1.77;;;;;;;-2.08;79.62;96295.53;4776363;29;20038;-63
2022/01/15 03:30:50;;;;;;;1.75;1.50;;;;;;;-2.05;80.09;96305.75;4775220;29;20051;-72
2022/01/15 03:33:16;;;;;;;1.27;0.90;;;;;;;-1.97;80.51;96302.56;4807619;29;20057;-71
2022/01/15 03:35:42;;;;;;;2.55;1.77;;;;;;;-2.17;80.27;96309.28;4792624;29;20049;-67
2022/01/15 03:38:07;;;;;;;1.77;1.67;;;;;;;-2.11;79.94;96306.19;4792645;29;20045;-67
2022/01/15 03:40:32;;;;;;;2.67;1.63;;;;;;;-1.99;81.10;96317.50;4808763;29;20045;-65
2022/01/15 03:42:57;;;;;;;3.55;1.30;;;;;;;-1.96;81.53;96318.13;4808345;29;20042;-66
2022/01/15 03:45:22;;;;;;;2.88;1.60;;;;;;;-2.05;81.69;96315.38;4791496;29;20057;-65
2022/01/15 03:47:47;;;;;;;4.22;1.50;;;;;;;-2.11;80.75;96318.41;4793542;29;20042;-64
2022/01/15 03:50:14;;;;;;;2.55;1.35;;;;;;;-1.98;81.76;96314.78;4825144;29;20272;-66
2022/01/15 03:52:39;;;;;;;1.90;1.55;;;;;;;-1.98;81.95;96324.41;4808748;29;20070;-65
2022/01/15 03:55:06;;;;;;;2.08;1.67;;;;;;;-1.92;82.27;96322.16;4825329;29;20056;-66
2022/01/15 03:57:31;;;;;;;2.67;1.30;;;;;;;-1.91;82.21;96331.66;4825042;29;20563;-66
2022/01/15 03:59:55;;;;;;;3.10;1.67;;;;;;;-1.88;82.23;96335.81;4825281;29;20596;-65
2022/01/15 04:02:20;;;;;;;3.25;1.90;;;;;;;-1.95;81.63;96329.41;4808672;29;20457;-65
2022/01/15 04:04:45;;;;;;;3.40;1.83;;;;;;;-2.01;80.58;96335.88;4825282;29;20493;-65
2022/01/15 04:07:10;;;;;;;2.50;1.10;;;;;;;-1.99;80.48;96341.84;4825266;29;20090;-65
2022/01/15 04:09:35;;;;;;;3.30;1.40;;;;;;;-1.92;81.26;96332.59;4808542;29;20413;-66
2022/01/15 04:11:59;;;;;;;3.40;1.75;;;;;;;-1.88;81.68;96336.66;4825077;29;20455;-66
2022/01/15 04:14:24;;;;;;;6.03;2.58;;;;;;;-2.02;80.67;96331.59;4824767;29;20068;-65
2022/01/15 04:16:49;;;;;;;3.72;2.10;;;;;;;-1.98;81.11;96340.88;4825182;29;20101;-65
2022/01/15 04:19:14;;;;;;;5.10;2.92;;;;;;;-1.98;80.82;96342.66;4824846;29;20492;-65
2022/01/15 04:21:38;;;;;;;9.82;2.63;;;;;;;-1.93;80.86;96341.41;4824731;29;20049;-65
2022/01/15 04:24:04;;;;;;;3.47;2.17;;;;;;;-1.86;81.86;96360.88;4825686;29;20568;-65
2022/01/15 11:15:16;;;;;;;7.78;1.92;;;;;;;-0.80;76.77;97038.84;5606631;24;20565;-68
2022/01/15 11:17:41;;;;;;;2.47;1.73;;;;;;;-0.82;77.02;97035.50;4806444;29;20412;-66
2022/01/15 11:20:07;;;;;;;2.35;1.40;;;;;;;-0.82;77.43;97040.72;4823659;29;20416;-67
2022/01/15 11:22:33;;;;;;;2.58;1.52;;;;;;;-0.95;75.15;97059.00;4823654;29;20062;-67
2022/01/15 11:24:58;;;;;;;5.88;1.60;;;;;;;-0.90;75.10;97048.22;4791917;29;20045;-68
2022/01/15 11:27:29;;;;;;;2.55;1.40;;;;;;;-0.92;74.82;97060.59;4823644;29;20128;-68
2022/01/15 11:29:58;;;;;;;2.67;1.02;;;;;;;-0.96;74.54;97059.94;4807219;29;20038;-67
2022/01/15 11:32:27;;;;;;;2.60;1.45;;;;;;;-0.95;75.35;97069.47;4825689;29;20049;-68
2022/01/15 11:35:00;;;;;;;2.17;1.50;;;;;;;-0.84;77.44;97071.38;4827547;29;20484;-69
2022/01/15 11:37:25;;;;;;;2.15;1.50;;;;;;;-0.96;77.13;97086.09;4827181;29;20535;-68
2022/01/15 11:39:54;;;;;;;2.72;1.25;;;;;;;-0.98;76.90;97087.13;4826815;29;20500;-69
2022/01/15 11:42:28;;;;;;;3.38;1.50;;;;;;;-1.13;75.97;97079.34;4826839;29;20057;-68
2022/01/15 11:44:53;;;;;;;2.28;1.52;;;;;;;-1.20;75.57;97093.78;4810900;29;20053;-68
2022/01/15 11:47:25;;;;;;;1.73;1.25;;;;;;;-1.10;76.94;97096.63;4826495;29;20461;-68
2022/01/15 11:49:57;;;;;;;4.60;1.52;;;;;;;-1.07;77.46;97095.59;4817602;29;20658;-67
2022/01/15 11:52:23;;;;;;;2.90;1.45;;;;;;;-1.07;77.74;97113.88;4808373;29;20050;-67
2022/01/15 11:54:49;;;;;;;3.50;1.80;;;;;;;-1.23;81.65;97117.47;4792176;29;20088;-68
2022/01/15 11:57:31;;;;;;;4.65;2.55;;;;;;;-1.27;80.86;97139.53;4777448;29;20050;-68
2022/01/15 11:59:58;;;;;;;2.63;1.60;;;;;;;-1.29;81.44;97132.72;4810377;29;20489;-69
2022/01/15 12:02:27;;;;;;;2.53;1.42;;;;;;;-1.36;80.25;97147.97;4793421;29;20066;-69
2022/01/15 12:04:53;;;;;;;3.92;2.25;;;;;;;-1.31;80.60;97148.50;4791758;29;20045;-66
2022/01/15 12:07:21;;;;;;;2.35;1.88;;;;;;;-1.27;81.62;97155.22;4791415;29;20050;-67
2022/01/15 12:09:48;;;;;;;3.70;2.00;;;;;;;-1.26;81.57;97154.28;4791127;29;20034;-67
2022/01/15 12:14:49;;;;;;;6.40;2.60;;;;;;;-1.34;78.94;97167.00;4808048;29;20833;-66
2022/01/15 12:17:32;;;;;;;1.33;1.23;;;;;;;-1.25;79.53;97171.66;4776063;29;20168;-67
2022/01/15 12:20:00;;;;;;;2.33;1.67;;;;;;;-1.28;78.40;97182.31;4800252;29;20041;-67
2022/01/15 12:22:39;;;;;;;4.50;2.67;;;;;;;-1.28;78.09;97194.53;4809442;29;20044;-68
2022/01/15 12:25:05;;;;;;;4.00;1.95;;;;;;;-1.29;79.02;97198.91;4825958;29;20093;-69
2022/01/15 12:27:32;;;;;;;2.78;1.27;;;;;;;-1.29;78.30;97213.75;4795166;29;20084;-68
2022/01/15 12:30:02;;;;;;;4.25;2.33;;;;;;;-1.31;78.12;97219.06;4811477;29;20046;-66
2022/01/15 12:32:33;;;;;;;3.75;1.92;;;;;;;-1.28;78.14;97221.50;4809101;29;20041;-65
2022/01/15 12:35:02;;;;;;;3.40;2.50;;;;;;;-1.43;76.37;97229.44;4809283;29;20515;-67
2022/01/15 12:37:31;;;;;;;3.83;2.42;;;;;;;-1.25;78.43;97233.56;4809819;29;20053;-66
2022/01/15 12:39:58;;;;;;;4.10;1.85;;;;;;;-1.23;78.51;97248.19;4825677;29;20093;-67
2022/01/15 12:42:33;;;;;;;4.20;2.65;;;;;;;-1.35;76.56;97246.31;4808865;29;20053;-68
2022/01/15 12:45:00;;;;;;;4.93;2.17;;;;;;;-1.34;77.17;97252.38;4825344;29;20041;-67
2022/01/15 12:47:41;;;;;;;6.45;2.25;;;;;;;-1.34;76.89;97263.69;4825573;29;20041;-67
2022/01/15 12:50:08;;;;;;;3.00;1.88;;;;;;;-1.33;77.52;97261.91;4825202;29;20688;-66
2022/01/15 12:52:34;;;;;;;3.95;2.40;;;;;;;-1.33;76.65;97264.53;4809040;29;20588;-66
2022/01/15 12:55:01;;;;;;;8.10;1.95;;;;;;;-1.27;77.73;97269.38;4825102;29;20052;-67
2022/01/15 12:57:45;;;;;;;1.83;1.50;;;;;;;-1.17;78.49;97276.56;4825542;29;20101;-66
2022/01/15 13:00:12;;;;;;;3.50;1.63;;;;;;;-1.31;75.99;97275.72;4808542;29;20046;-67
2022/01/15 13:02:36;;;;;;;5.18;2.15;;;;;;;-1.25;76.23;97289.28;4808796;29;20105;-66
2022/01/15 13:05:02;;;;;;;2.75;1.98;;;;;;;-1.27;75.68;97293.75;4825237;29;20049;-67
2022/01/15 13:07:51;;;;;;;4.15;2.05;;;;;;;-1.12;77.56;97299.78;4809076;29;20041;-66
2022/01/15 13:10:35;;;;;;;3.13;2.00;;;;;;;-1.17;76.58;97307.94;4825170;29;20049;-67
2022/01/15 13:13:03;;;;;;;3.22;1.92;;;;;;;-1.27;76.21;97322.50;4808384;29;20412;-66
2022/01/15 13:15:30;;;;;;;3.55;2.17;;;;;;;-1.23;77.58;97329.22;4824867;29;20068;-65
2022/01/15 13:17:55;;;;;;;3.30;2.28;;;;;;;-1.37;76.19;97326.63;4808420;29;20049;-67
2022/01/15 13:20:34;;;;;;;4.10;1.67;;;;;;;-1.33;76.73;97328.09;4824694;29;20535;-65
2022/01/15 13:23:03;;;;;;;8.63;1.63;;;;;;;-1.35;76.97;97344.78;4824385;29;20106;-65
2022/01/15 13:25:33;;;;;;;3.95;1.85;;;;;;;-1.45;76.78;97344.50;4808152;29;20049;-65
2022/01/15 13:27:58;;;;;;;4.32;2.33;;;;;;;-1.42;76.60;97352.16;4808156;29;20101;-66
2022/01/15 13:30:25;;;;;;;3.22;2.05;;;;;;;-1.36;77.66;97359.66;4825129;29;20053;-66
2022/01/15 13:33:01;;;;;;;3.88;2.03;;;;;;;-1.41;76.96;97355.63;4807712;29;20037;-66
2022/01/15 13:35:41;;;;;;;4.43;2.13;;;;;;;-1.41;76.91;97371.31;4807955;29;20097;-65
2022/01/15 13:38:08;;;;;;;5.30;2.75;;;;;;;-1.43;77.30;97378.38;4792955;29;20204;-65
2022/01/15 13:40:37;;;;;;;2.90;1.88;;;;;;;-1.42;77.53;97372.22;4824338;29;20049;-66
2022/01/15 13:43:06;;;;;;;1.98;1.42;;;;;;;-1.42;78.18;97375.69;4823959;29;20523;-66
2022/01/15 13:45:35;;;;;;;5.30;2.53;;;;;;;-1.46;77.60;97390.69;4823704;29;20053;-66
2022/01/15 13:48:16;;;;;;;3.80;2.88;;;;;;;-1.51;75.97;97403.22;4824301;29;20131;-66
2022/01/15 13:53:48;;;;;;;4.28;2.13;;;;;;;-1.43;77.14;97399.28;4824036;29;20444;-65
2022/01/15 13:56:22;;;;;;;4.82;2.33;;;;;;;-1.48;76.45;97408.25;4827890;29;20488;-68
2022/01/15 13:58:50;;;;;;;3.50;2.13;;;;;;;-1.60;75.46;97413.38;4828539;29;20114;-67
2022/01/15 14:01:22;;;;;;;3.47;2.17;;;;;;;-1.33;77.99;97408.25;4827264;29;20398;-66
2022/01/15 14:03:49;;;;;;;3.03;1.70;;;;;;;-1.46;75.62;97421.22;4807542;29;20052;-66
2022/01/15 14:06:16;;;;;;;2.92;1.52;;;;;;;-1.40;76.53;97413.03;4823873;29;20467;-65
2022/01/15 14:08:42;;;;;;;2.58;1.92;;;;;;;-1.47;75.78;97427.41;4823625;29;20072;-66
2022/01/15 14:11:13;;;;;;;2.28;1.67;;;;;;;-1.39;75.40;97440.00;4823631;29;20190;-65
2022/01/15 14:13:41;;;;;;;3.97;1.52;;;;;;;-1.42;74.68;97432.34;4824123;29;20414;-66
2022/01/15 14:16:40;;;;;;;2.65;1.98;;;;;;;-1.18;77.95;97447.41;4806785;29;20510;-65
2022/01/15 14:19:25;;;;;;;2.78;1.85;;;;;;;-1.20;78.64;97448.44;4731302;30;20475;-64
2022/01/15 14:21:54;;;;;;;2.72;1.45;;;;;;;-1.21;78.33;97468.50;4731002;30;20142;-65
2022/01/15 14:24:25;;;;;;;1.73;0.95;;;;;;;-1.10;79.60;97450.41;4731274;30;20056;-68
2022/01/15 14:26:57;;;;;;;3.63;1.60;;;;;;;-1.08;79.67;97465.16;4716285;30;20139;-70
2022/01/15 14:29:27;;;;;;;5.72;1.52;;;;;;;-1.06;79.95;97455.47;4716926;30;20051;-64
2022/01/15 14:31:57;;;;;;;2.75;1.52;;;;;;;-1.06;79.52;97485.06;4731011;30;20531;-66
2022/01/15 14:34:22;;;;;;;3.13;1.60;;;;;;;-1.11;80.04;97493.16;4716719;30;20098;-67
2022/01/15 14:36:47;;;;;;;2.92;1.85;;;;;;;-1.29;76.65;97489.03;4732013;30;20079;-66
2022/01/15 14:39:14;;;;;;;2.47;1.30;;;;;;;-1.18;78.14;97484.03;4731077;30;20055;-65
2022/01/15 14:41:39;;;;;;;2.47;1.38;;;;;;;-1.29;76.11;97489.03;4731617;30;20505;-66
2022/01/15 14:44:04;;;;;;;3.88;1.67;;;;;;;-1.25;76.33;97497.53;4731130;30;20949;-66
2022/01/15 14:46:29;;;;;;;2.90;1.70;;;;;;;-1.17;78.26;97492.69;4716654;30;20150;-65
2022/01/15 14:49:01;;;;;;;2.15;1.27;;;;;;;-1.25;77.51;97508.84;4732861;30;20055;-66
2022/01/15 14:51:27;;;;;;;2.53;1.95;;;;;;;-1.32;75.28;97517.09;4733373;30;20055;-68
2022/01/15 14:53:57;;;;;;;4.82;2.38;;;;;;;-1.32;73.80;97520.56;4744734;29;20050;-70
2022/01/15 14:56:21;;;;;;;2.58;1.27;;;;;;;-1.24;77.14;97531.41;4805409;29;20080;-67
2022/01/15 14:58:47;;;;;;;3.40;2.50;;;;;;;-1.30;76.09;97547.47;4805131;29;20509;-67
2022/01/15 15:01:14;;;;;;;3.85;2.00;;;;;;;-1.29;75.92;97550.91;4803740;29;20069;-67
2022/01/15 15:03:41;;;;;;;1.52;1.05;;;;;;;-1.27;77.10;97554.28;4810280;29;20110;-67
2022/01/15 15:06:06;;;;;;;4.18;2.47;;;;;;;-1.27;77.67;97554.28;4805491;29;20485;-66
2022/01/15 15:08:41;;;;;;;3.13;1.77;;;;;;;-1.24;77.82;97567.19;4825564;29;20515;-68
2022/01/15 15:11:11;;;;;;;2.95;1.73;;;;;;;-1.29;77.10;97569.22;4825500;29;20514;-66
2022/01/15 15:13:36;;;;;;;2.72;1.83;;;;;;;-1.29;76.79;97572.69;4824349;29;20049;-66
2022/01/15 15:16:01;;;;;;;2.88;1.95;;;;;;;-1.24;77.81;97568.00;4826727;29;20058;-66
2022/01/15 15:18:26;;;;;;;3.38;1.75;;;;;;;-1.29;77.87;97574.44;4829402;29;20051;-66
2022/01/15 15:20:53;;;;;;;2.72;1.52;;;;;;;-1.33;76.22;97579.00;4810582;29;20139;-66
2022/01/15 15:23:19;;;;;;;2.13;0.88;;;;;;;-1.20;78.40;97590.44;4809128;29;20044;-69
2022/01/15 15:25:49;;;;;;;3.83;2.00;;;;;;;-1.18;79.34;97590.34;4793189;29;20054;-68
2022/01/15 15:28:15;;;;;;;2.72;1.58;;;;;;;-1.42;76.38;97595.19;4791461;29;20457;-67
2022/01/15 15:30:42;;;;;;;2.92;1.90;;;;;;;-1.44;76.12;97611.88;4808966;29;20049;-67
2022/01/15 15:33:07;;;;;;;1.80;1.35;;;;;;;-1.46;76.85;97606.75;4793081;29;20357;-67
2022/01/15 15:35:32;;;;;;;3.22;1.40;;;;;;;-1.54;74.74;97622.00;4825858;29;20451;-66
2022/01/15 15:38:02;;;;;;;3.92;2.03;;;;;;;-1.50;75.28;97620.94;4826063;29;20048;-67
2022/01/15 15:40:27;;;;;;;3.47;1.88;;;;;;;-1.54;75.37;97616.78;4825450;29;20472;-66
2022/01/15 15:42:52;;;;;;;2.17;1.48;;;;;;;-1.55;75.46;97621.16;4825809;29;20484;-66
2022/01/15 15:45:20;;;;;;;2.22;1.52;;;;;;;-1.54;76.55;97635.91;4826854;29;20045;-67
2022/01/15 15:47:45;;;;;;;2.45;1.75;;;;;;;-1.58;76.02;97641.41;4794724;29;20056;-65
2022/01/15 15:50:10;;;;;;;2.47;1.80;;;;;;;-1.56;76.76;97648.22;4794725;29;20052;-67
2022/01/15 15:52:36;;;;;;;5.00;2.13;;;;;;;-1.60;76.08;97648.47;4810199;29;20049;-67
2022/01/15 15:55:02;;;;;;;3.92;2.22;;;;;;;-1.63;74.84;97643.41;4826426;29;20090;-67
2022/01/15 15:57:28;;;;;;;5.38;2.25;;;;;;;-1.59;76.07;97644.94;4793777;29;20091;-69
2022/01/15 15:59:54;;;;;;;2.67;1.73;;;;;;;-1.55;76.28;97646.44;4792291;29;20046;-68
2022/01/15 16:02:19;;;;;;;4.80;1.75;;;;;;;-1.47;77.75;97658.16;4808796;29;20049;-66
2022/01/15 16:04:46;;;;;;;3.85;2.25;;;;;;;-1.50;77.94;97666.19;4808644;29;20148;-66
2022/01/15 16:07:12;;;;;;;4.15;2.25;;;;;;;-1.55;77.77;97664.75;4825091;29;20045;-66
2022/01/15 16:09:41;;;;;;;2.25;1.50;;;;;;;-1.63;76.68;97659.94;4825216;29;20419;-66
2022/01/15 16:12:07;;;;;;;2.05;1.83;;;;;;;-1.66;77.57;97673.16;4823268;29;20058;-66
2022/01/15 16:14:32;;;;;;;5.35;2.40;;;;;;;-1.66;78.32;97673.16;4826375;29;20049;-67
2022/01/15 16:17:00;;;;;;;1.92;1.73;;;;;;;-1.66;78.57;97675.78;4825816;29;20505;-66
2022/01/15 16:19:25;;;;;;;4.15;1.77;;;;;;;-1.75;77.61;97678.03;4825489;29;20098;-67
2022/01/15 16:21:52;;;;;;;3.35;1.90;;;;;;;-1.69;78.39;97678.53;4824148;29;20057;-70
2022/01/15 16:24:16;;;;;;;5.47;2.53;;;;;;;-1.78;77.21;97673.81;4825244;29;20051;-71
2022/01/15 16:26:41;;;;;;;3.30;2.42;;;;;;;-1.79;76.37;97684.34;4809100;29;20053;-71
2022/01/15 16:29:06;;;;;;;2.40;1.83;;;;;;;-1.87;75.69;97677.75;4793667;29;20137;-68
2022/01/15 16:31:31;;;;;;;2.55;1.85;;;;;;;-1.80;77.05;97683.50;4809048;29;20057;-68
2022/01/15 16:33:58;;;;;;;4.90;1.77;;;;;;;-1.77;78.09;97695.56;4809722;29;20078;-68
2022/01/15 16:36:24;;;;;;;3.38;1.67;;;;;;;-1.69;78.78;97703.84;4825498;29;20060;-67
2022/01/15 16:38:53;;;;;;;4.20;2.20;;;;;;;-1.74;78.11;97696.25;4825637;29;20057;-68
2022/01/15 16:41:18;;;;;;;8.40;2.80;;;;;;;-1.78;79.25;97694.72;4808768;29;20076;-68
2022/01/15 16:43:44;;;;;;;2.78;1.38;;;;;;;-1.84;76.92;97708.09;4825319;29;20144;-68
2022/01/15 16:46:09;;;;;;;2.72;2.15;;;;;;;-1.99;74.11;97714.97;4808933;29;20056;-68
2022/01/15 16:48:34;;;;;;;1.92;1.55;;;;;;;-1.98;73.40;97721.88;4808859;29;20046;-68
2022/01/15 16:50:59;;;;;;;3.35;1.70;;;;;;;-1.81;76.99;97741.06;4825392;29;20060;-70
2022/01/15 16:53:28;;;;;;;4.80;2.47;;;;;;;-1.78;78.67;97735.66;4825340;29;20053;-74
2022/01/15 16:55:52;;;;;;;3.30;2.30;;;;;;;-1.93;76.14;97746.00;4825484;29;20105;-69
2022/01/15 16:58:19;;;;;;;3.65;1.92;;;;;;;-1.91;76.19;97735.44;4809186;29;20084;-71
2022/01/15 17:00:45;;;;;;;2.20;1.65;;;;;;;-1.85;76.79;97740.38;4825507;29;20049;-73
2022/01/15 17:03:13;;;;;;;2.55;1.63;;;;;;;-1.83;76.54;97748.97;4808643;29;20046;-71
2022/01/15 17:05:38;;;;;;;2.08;1.40;;;;;;;-1.81;76.62;97738.44;4808912;29;20128;-73
2022/01/15 17:08:04;;;;;;;2.72;1.05;;;;;;;-1.81;76.35;97751.50;4808876;29;20567;-71
2022/01/15 17:10:54;;;;;;;6.43;1.88;;;;;;;-1.83;73.91;97735.91;4808285;29;20414;-73
2022/01/15 17:13:19;;;;;;;2.05;1.38;;;;;;;-1.77;76.64;97753.84;4825350;29;20110;-72
2022/01/15 17:15:44;;;;;;;1.92;1.27;;;;;;;-1.81;75.59;97769.78;4799931;29;20062;-72
2022/01/15 17:18:11;;;;;;;2.83;1.50;;;;;;;-1.88;72.34;97762.25;4772259;29;20537;-73
2022/01/15 17:20:39;;;;;;;3.05;1.55;;;;;;;-1.82;74.10;97763.72;4788884;29;20050;-73
2022/01/15 17:23:04;;;;;;;1.27;0.98;;;;;;;-1.90;73.48;97766.69;4787639;29;20069;-72
2022/01/15 17:25:30;;;;;;;5.22;1.83;;;;;;;-1.99;71.59;97777.63;4787538;29;20093;-73
2022/01/15 17:27:58;;;;;;;1.67;1.08;;;;;;;-1.93;73.42;97779.94;4787831;29;20049;-71
2022/01/15 17:30:23;;;;;;;3.95;1.48;;;;;;;-1.94;72.77;97785.25;4785116;29;20422;-73
2022/01/15 17:32:48;;;;;;;9.02;1.73;;;;;;;-2.08;70.82;97785.09;4785249;29;20042;-74
2022/01/15 17:35:13;;;;;;;3.35;1.67;;;;;;;-2.00;72.55;97802.03;4786042;29;20046;-74
2022/01/15 17:37:41;;;;;;;1.17;1.05;;;;;;;-2.02;70.73;97796.03;4785941;29;20046;-75
2022/01/15 17:40:08;;;;;;;4.93;1.77;;;;;;;-1.88;74.02;97790.97;4787444;29;20050;-74
2022/01/15 17:42:35;;;;;;;2.20;1.50;;;;;;;-1.83;74.60;97812.50;4787863;29;20056;-74
2022/01/15 17:45:03;;;;;;;1.63;1.52;;;;;;;-1.92;72.31;97810.31;4786846;29;20124;-75
2022/01/15 17:47:28;;;;;;;1.60;1.50;;;;;;;-1.88;73.32;97814.47;4787325;29;20116;-72
2022/01/15 17:49:53;;;;;;;1.45;1.27;;;;;;;-1.86;73.62;97824.84;4788300;29;20046;-72
2022/01/15 17:52:19;;;;;;;4.38;1.73;;;;;;;-1.89;73.46;97815.41;4787149;29;20129;-72
2022/01/15 17:54:44;;;;;;;2.22;1.27;;;;;;;-2.03;70.60;97807.41;4771954;29;20145;-71
2022/01/15 17:57:09;;;;;;;3.03;1.73;;;;;;;-2.10;68.09;97816.47;4787787;29;21284;-73
2022/01/15 17:59:35;;;;;;;2.10;1.38;;;;;;;-2.01;70.83;97816.00;4780992;29;20824;-73
2022/01/15 18:02:02;;;;;;;1.20;1.08;;;;;;;-1.96;71.59;97819.25;4787643;29;20050;-72
2022/01/15 18:04:28;;;;;;;3.03;1.55;;;;;;;-1.87;73.93;97831.00;4787393;29;20505;-72
2022/01/15 18:07:20;;;;;;;5.75;1.80;;;;;;;-1.83;75.20;97850.81;4785438;29;20445;-72
2022/01/15 18:09:45;;;;;;;2.53;1.30;;;;;;;-1.92;72.72;97859.13;4785610;29;20449;-73
2022/01/15 18:12:10;;;;;;;2.28;1.73;;;;;;;-1.91;72.16;97874.69;4786039;29;20218;-72
2022/01/15 18:14:37;;;;;;;2.38;1.23;;;;;;;-1.89;72.05;97893.75;4768398;29;20043;-72
2022/01/15 18:17:03;;;;;;;5.82;3.40;;;;;;;-1.81;73.28;97903.84;4817507;29;20085;-73
2022/01/15 18:19:30;;;;;;;2.42;1.65;;;;;;;-1.80;73.89;97938.59;4810192;29;20045;-72
2022/01/15 18:21:56;;;;;;;2.30;1.75;;;;;;;-1.78;75.00;97968.13;4824746;29;20051;-72
2022/01/15 18:24:21;;;;;;;2.47;1.73;;;;;;;-1.79;74.22;98003.84;4828708;29;20041;-73
2022/01/15 18:26:48;;;;;;;4.85;1.70;;;;;;;-1.73;76.03;97971.34;4808197;29;20623;-71
2022/01/15 18:29:20;;;;;;;1.55;1.40;;;;;;;-1.84;71.40;97932.72;4807886;29;20056;-73
2022/01/15 18:31:44;;;;;;;1.88;1.42;;;;;;;-1.89;68.81;97878.06;4825104;29;20449;-73
2022/01/15 18:34:10;;;;;;;2.25;1.10;;;;;;;-1.88;71.16;97816.25;4808127;29;20076;-73
2022/01/15 18:36:35;;;;;;;2.55;1.73;;;;;;;-1.92;69.64;97789.44;4793722;29;20519;-73
2022/01/15 18:39:00;;;;;;;2.70;1.73;;;;;;;-1.88;70.77;97800.56;4780531;29;20050;-74
2022/01/15 18:41:25;;;;;;;4.43;2.38;;;;;;;-1.89;70.32;97807.56;4815168;29;20045;-72
2022/01/15 18:43:50;;;;;;;3.25;1.88;;;;;;;-1.91;69.68;97822.47;4802329;29;20148;-71
2022/01/15 18:46:16;;;;;;;3.45;2.13;;;;;;;-1.93;69.66;97847.84;4831697;29;20121;-71
2022/01/15 18:48:43;;;;;;;4.55;1.75;;;;;;;-2.01;69.52;97875.22;4813880;29;20049;-72